sensor_id;sensor_type;location;lat;lon;timestamp;P1;durP1;ratioP1;P2;durP2;ratioP2
48733;SDS011;34530;52.084;5.146;2023-01-29T00:01:24;7.72;;;4.55;;
48733;SDS011;34530;52.084;5.146;2023-01-29T00:03:50;5.10;;;4.60;;
48733;SDS011;34530;52.084;5.146;2023-01-29T00:06:16;7.13;;;4.78;;
48733;SDS011;34530;52.084;5.146;2023-01-29T00:08:42;5.68;;;4.65;;
48733;SDS011;34530;52.084;5.146;2023-01-29T00:11:08;4.97;;;4.47;;
48733;SDS011;34530;52.084;5.146;2023-01-29T00:13:34;4.93;;;4.30;;
48733;SDS011;34530;52.084;5.146;2023-01-29T00:16:00;6.63;;;4.53;;
48733;SDS011;34530;52.084;5.146;2023-01-29T00:18:26;7.80;;;4.35;;
48733;SDS011;34530;52.084;5.146;2023-01-29T00:20:53;4.90;;;4.25;;
48733;SDS011;34530;52.084;5.146;2023-01-29T00:23:19;4.75;;;4.20;;
48733;SDS011;34530;52.084;5.146;2023-01-29T00:25:45;4.50;;;4.10;;
48733;SDS011;34530;52.084;5.146;2023-01-29T00:28:11;4.63;;;4.13;;
48733;SDS011;34530;52.084;5.146;2023-01-29T00:30:37;4.70;;;4.20;;
48733;SDS011;34530;52.084;5.146;2023-01-29T00:33:02;4.75;;;4.03;;
48733;SDS011;34530;52.084;5.146;2023-01-29T00:35:28;4.75;;;4.15;;
48733;SDS011;34530;52.084;5.146;2023-01-29T00:37:55;4.55;;;4.05;;
48733;SDS011;34530;52.084;5.146;2023-01-29T00:40:22;5.00;;;4.05;;
48733;SDS011;34530;52.084;5.146;2023-01-29T00:42:48;4.63;;;4.13;;
48733;SDS011;34530;52.084;5.146;2023-01-29T00:45:33;7.10;;;4.75;;
48733;SDS011;34530;52.084;5.146;2023-01-29T00:48:00;4.38;;;3.97;;
48733;SDS011;34530;52.084;5.146;2023-01-29T00:50:30;5.05;;;4.47;;
48733;SDS011;34530;52.084;5.146;2023-01-29T00:52:56;5.30;;;4.53;;
48733;SDS011;34530;52.084;5.146;2023-01-29T00:55:22;4.68;;;4.00;;
48733;SDS011;34530;52.084;5.146;2023-01-29T00:57:47;5.07;;;4.53;;
48733;SDS011;34530;52.084;5.146;2023-01-29T01:00:15;5.93;;;3.95;;
48733;SDS011;34530;52.084;5.146;2023-01-29T01:02:42;5.45;;;4.32;;
48733;SDS011;34530;52.084;5.146;2023-01-29T01:05:27;4.55;;;4.15;;
48733;SDS011;34530;52.084;5.146;2023-01-29T01:07:54;5.15;;;4.10;;
48733;SDS011;34530;52.084;5.146;2023-01-29T01:10:25;5.38;;;4.10;;
48733;SDS011;34530;52.084;5.146;2023-01-29T01:12:54;5.78;;;4.18;;
48733;SDS011;34530;52.084;5.146;2023-01-29T01:15:25;5.82;;;4.13;;
48733;SDS011;34530;52.084;5.146;2023-01-29T01:17:57;4.57;;;4.00;;
48733;SDS011;34530;52.084;5.146;2023-01-29T01:20:25;4.90;;;3.90;;
48733;SDS011;34530;52.084;5.146;2023-01-29T01:22:52;5.32;;;4.72;;
48733;SDS011;34530;52.084;5.146;2023-01-29T01:25:18;4.93;;;4.10;;
48733;SDS011;34530;52.084;5.146;2023-01-29T01:27:44;6.35;;;4.07;;
48733;SDS011;34530;52.084;5.146;2023-01-29T01:30:11;4.63;;;3.80;;
48733;SDS011;34530;52.084;5.146;2023-01-29T01:32:38;4.80;;;4.30;;
48733;SDS011;34530;52.084;5.146;2023-01-29T01:35:05;4.55;;;4.15;;
48733;SDS011;34530;52.084;5.146;2023-01-29T01:37:31;4.50;;;3.70;;
48733;SDS011;34530;52.084;5.146;2023-01-29T01:39:56;4.22;;;3.80;;
48733;SDS011;34530;52.084;5.146;2023-01-29T01:42:28;4.30;;;3.90;;
48733;SDS011;34530;52.084;5.146;2023-01-29T01:50:00;4.20;;;3.55;;
48733;SDS011;34530;52.084;5.146;2023-01-29T01:52:32;4.65;;;3.58;;
48733;SDS011;34530;52.084;5.146;2023-01-29T01:55:01;4.65;;;3.92;;
48733;SDS011;34530;52.084;5.146;2023-01-29T01:57:28;4.45;;;3.40;;
48733;SDS011;34530;52.084;5.146;2023-01-29T02:00:02;4.65;;;3.63;;
48733;SDS011;34530;52.084;5.146;2023-01-29T02:02:34;3.97;;;3.58;;
48733;SDS011;34530;52.084;5.146;2023-01-29T02:05:18;5.05;;;3.30;;
48733;SDS011;34530;52.084;5.146;2023-01-29T02:08:02;4.75;;;4.20;;
48733;SDS011;34530;52.084;5.146;2023-01-29T02:10:46;3.90;;;3.50;;
48733;SDS011;34530;52.084;5.146;2023-01-29T02:13:13;4.40;;;4.00;;
48733;SDS011;34530;52.084;5.146;2023-01-29T02:15:41;4.70;;;3.58;;
48733;SDS011;34530;52.084;5.146;2023-01-29T02:18:10;4.18;;;3.33;;
48733;SDS011;34530;52.084;5.146;2023-01-29T02:20:37;3.55;;;3.25;;
48733;SDS011;34530;52.084;5.146;2023-01-29T02:23:15;4.85;;;3.88;;
48733;SDS011;34530;52.084;5.146;2023-01-29T02:31:34;4.45;;;3.83;;
48733;SDS011;34530;52.084;5.146;2023-01-29T02:34:12;4.15;;;3.75;;
48733;SDS011;34530;52.084;5.146;2023-01-29T02:40:10;3.40;;;3.10;;
48733;SDS011;34530;52.084;5.146;2023-01-29T02:42:27;4.45;;;3.78;;
48733;SDS011;34530;52.084;5.146;2023-01-29T02:45:10;4.18;;;3.38;;
48733;SDS011;34530;52.084;5.146;2023-01-29T02:47:41;4.57;;;3.63;;
48733;SDS011;34530;52.084;5.146;2023-01-29T02:50:18;3.55;;;3.25;;
48733;SDS011;34530;52.084;5.146;2023-01-29T02:55:43;4.45;;;3.58;;
48733;SDS011;34530;52.084;5.146;2023-01-29T02:58:33;3.40;;;3.10;;
48733;SDS011;34530;52.084;5.146;2023-01-29T03:01:07;4.30;;;3.03;;
48733;SDS011;34530;52.084;5.146;2023-01-29T03:03:41;4.25;;;3.85;;
48733;SDS011;34530;52.084;5.146;2023-01-29T03:06:19;3.58;;;3.28;;
48733;SDS011;34530;52.084;5.146;2023-01-29T03:11:26;3.85;;;3.30;;
48733;SDS011;34530;52.084;5.146;2023-01-29T03:14:18;3.88;;;2.90;;
48733;SDS011;34530;52.084;5.146;2023-01-29T03:16:50;4.05;;;3.60;;
48733;SDS011;34530;52.084;5.146;2023-01-29T03:19:18;4.00;;;3.53;;
48733;SDS011;34530;52.084;5.146;2023-01-29T03:21:51;4.57;;;3.30;;
48733;SDS011;34530;52.084;5.146;2023-01-29T03:27:13;4.22;;;3.42;;
48733;SDS011;34530;52.084;5.146;2023-01-29T03:30:00;3.85;;;3.42;;
48733;SDS011;34530;52.084;5.146;2023-01-29T03:32:48;4.05;;;3.50;;
48733;SDS011;34530;52.084;5.146;2023-01-29T03:35:17;4.15;;;3.45;;
48733;SDS011;34530;52.084;5.146;2023-01-29T03:38:00;4.90;;;3.55;;
48733;SDS011;34530;52.084;5.146;2023-01-29T03:40:45;3.97;;;3.55;;
48733;SDS011;34530;52.084;5.146;2023-01-29T03:46:09;3.65;;;3.35;;
48733;SDS011;34530;52.084;5.146;2023-01-29T04:02:37;6.07;;;3.67;;
48733;SDS011;34530;52.084;5.146;2023-01-29T04:05:28;3.90;;;3.60;;
48733;SDS011;34530;52.084;5.146;2023-01-29T04:08:01;6.20;;;4.05;;
48733;SDS011;34530;52.084;5.146;2023-01-29T04:10:32;4.32;;;3.38;;
48733;SDS011;34530;52.084;5.146;2023-01-29T04:13:03;4.47;;;3.97;;
48733;SDS011;34530;52.084;5.146;2023-01-29T04:15:33;4.40;;;3.55;;
48733;SDS011;34530;52.084;5.146;2023-01-29T04:18:06;4.22;;;3.83;;
48733;SDS011;34530;52.084;5.146;2023-01-29T04:20:32;4.47;;;3.90;;
48733;SDS011;34530;52.084;5.146;2023-01-29T04:22:59;5.78;;;3.88;;
48733;SDS011;34530;52.084;5.146;2023-01-29T04:25:26;3.92;;;3.63;;
48733;SDS011;34530;52.084;5.146;2023-01-29T04:38:15;5.07;;;4.28;;
48733;SDS011;34530;52.084;5.146;2023-01-29T04:46:18;4.60;;;4.18;;
48733;SDS011;34530;52.084;5.146;2023-01-29T04:52:04;4.68;;;4.03;;
48733;SDS011;34530;52.084;5.146;2023-01-29T04:57:34;5.30;;;4.00;;
48733;SDS011;34530;52.084;5.146;2023-01-29T05:02:44;5.75;;;4.10;;
48733;SDS011;34530;52.084;5.146;2023-01-29T05:05:11;4.18;;;3.78;;
48733;SDS011;34530;52.084;5.146;2023-01-29T05:07:38;4.65;;;4.10;;
48733;SDS011;34530;52.084;5.146;2023-01-29T05:10:07;4.85;;;4.25;;
48733;SDS011;34530;52.084;5.146;2023-01-29T05:12:34;4.75;;;4.25;;
48733;SDS011;34530;52.084;5.146;2023-01-29T05:15:02;6.63;;;5.07;;
48733;SDS011;34530;52.084;5.146;2023-01-29T05:17:32;5.57;;;4.57;;
48733;SDS011;34530;52.084;5.146;2023-01-29T05:19:58;4.85;;;4.28;;
48733;SDS011;34530;52.084;5.146;2023-01-29T05:22:23;5.43;;;4.60;;
48733;SDS011;34530;52.084;5.146;2023-01-29T05:24:50;5.70;;;4.78;;
48733;SDS011;34530;52.084;5.146;2023-01-29T05:27:18;5.32;;;4.38;;
48733;SDS011;34530;52.084;5.146;2023-01-29T05:30:05;5.75;;;4.72;;
48733;SDS011;34530;52.084;5.146;2023-01-29T05:32:31;4.82;;;4.32;;
48733;SDS011;34530;52.084;5.146;2023-01-29T05:34:57;5.25;;;4.65;;
48733;SDS011;34530;52.084;5.146;2023-01-29T05:37:22;5.60;;;4.55;;
48733;SDS011;34530;52.084;5.146;2023-01-29T05:39:48;5.80;;;4.70;;
48733;SDS011;34530;52.084;5.146;2023-01-29T05:42:13;5.50;;;5.00;;
48733;SDS011;34530;52.084;5.146;2023-01-29T05:44:39;5.45;;;4.40;;
48733;SDS011;34530;52.084;5.146;2023-01-29T05:47:05;5.97;;;4.70;;
48733;SDS011;34530;52.084;5.146;2023-01-29T05:49:30;5.55;;;4.60;;
48733;SDS011;34530;52.084;5.146;2023-01-29T05:51:56;5.32;;;4.63;;
48733;SDS011;34530;52.084;5.146;2023-01-29T05:54:21;4.68;;;4.25;;
48733;SDS011;34530;52.084;5.146;2023-01-29T05:56:47;5.70;;;4.40;;
48733;SDS011;34530;52.084;5.146;2023-01-29T05:59:13;5.00;;;4.45;;
48733;SDS011;34530;52.084;5.146;2023-01-29T06:01:40;5.95;;;4.82;;
48733;SDS011;34530;52.084;5.146;2023-01-29T06:04:05;5.10;;;4.13;;
48733;SDS011;34530;52.084;5.146;2023-01-29T06:06:31;5.22;;;4.43;;
48733;SDS011;34530;52.084;5.146;2023-01-29T06:08:56;4.93;;;4.43;;
48733;SDS011;34530;52.084;5.146;2023-01-29T06:11:23;5.10;;;4.60;;
48733;SDS011;34530;52.084;5.146;2023-01-29T06:13:48;5.25;;;4.75;;
48733;SDS011;34530;52.084;5.146;2023-01-29T06:16:14;5.30;;;4.45;;
48733;SDS011;34530;52.084;5.146;2023-01-29T06:18:40;5.30;;;4.80;;
48733;SDS011;34530;52.084;5.146;2023-01-29T06:21:07;5.40;;;4.50;;
48733;SDS011;34530;52.084;5.146;2023-01-29T06:23:35;5.28;;;4.55;;
48733;SDS011;34530;52.084;5.146;2023-01-29T06:26:05;5.35;;;4.85;;
48733;SDS011;34530;52.084;5.146;2023-01-29T06:28:32;5.35;;;4.60;;
48733;SDS011;34530;52.084;5.146;2023-01-29T06:30:59;5.22;;;4.38;;
48733;SDS011;34530;52.084;5.146;2023-01-29T06:33:26;5.00;;;4.50;;
48733;SDS011;34530;52.084;5.146;2023-01-29T06:35:55;5.88;;;4.80;;
48733;SDS011;34530;52.084;5.146;2023-01-29T06:38:22;5.80;;;5.20;;
48733;SDS011;34530;52.084;5.146;2023-01-29T06:40:48;5.60;;;4.53;;
48733;SDS011;34530;52.084;5.146;2023-01-29T06:43:13;5.05;;;4.55;;
48733;SDS011;34530;52.084;5.146;2023-01-29T06:45:45;5.88;;;5.28;;
48733;SDS011;34530;52.084;5.146;2023-01-29T06:48:17;4.68;;;4.28;;
48733;SDS011;34530;52.084;5.146;2023-01-29T06:50:44;5.00;;;4.60;;
48733;SDS011;34530;52.084;5.146;2023-01-29T06:53:10;5.55;;;4.47;;
48733;SDS011;34530;52.084;5.146;2023-01-29T06:55:36;5.32;;;4.82;;
48733;SDS011;34530;52.084;5.146;2023-01-29T06:58:05;6.85;;;4.95;;
48733;SDS011;34530;52.084;5.146;2023-01-29T07:00:32;5.63;;;4.68;;
48733;SDS011;34530;52.084;5.146;2023-01-29T07:02:58;5.47;;;4.55;;
48733;SDS011;34530;52.084;5.146;2023-01-29T07:05:24;5.78;;;5.05;;
48733;SDS011;34530;52.084;5.146;2023-01-29T07:07:49;6.70;;;4.95;;
48733;SDS011;34530;52.084;5.146;2023-01-29T07:10:15;5.18;;;4.68;;
48733;SDS011;34530;52.084;5.146;2023-01-29T07:12:41;5.32;;;4.47;;
48733;SDS011;34530;52.084;5.146;2023-01-29T07:15:07;5.85;;;4.82;;
48733;SDS011;34530;52.084;5.146;2023-01-29T07:17:33;5.45;;;4.80;;
48733;SDS011;34530;52.084;5.146;2023-01-29T07:19:58;5.32;;;4.82;;
48733;SDS011;34530;52.084;5.146;2023-01-29T07:22:24;5.97;;;5.45;;
48733;SDS011;34530;52.084;5.146;2023-01-29T07:24:49;6.05;;;5.35;;
48733;SDS011;34530;52.084;5.146;2023-01-29T07:27:15;5.32;;;4.68;;
48733;SDS011;34530;52.084;5.146;2023-01-29T07:29:41;5.55;;;4.80;;
48733;SDS011;34530;52.084;5.146;2023-01-29T07:32:06;5.68;;;4.82;;
48733;SDS011;34530;52.084;5.146;2023-01-29T07:34:32;6.03;;;4.93;;
48733;SDS011;34530;52.084;5.146;2023-01-29T07:36:58;4.95;;;4.45;;
48733;SDS011;34530;52.084;5.146;2023-01-29T07:39:23;5.32;;;4.72;;
48733;SDS011;34530;52.084;5.146;2023-01-29T07:41:49;5.05;;;4.55;;
48733;SDS011;34530;52.084;5.146;2023-01-29T07:44:15;6.75;;;5.30;;
48733;SDS011;34530;52.084;5.146;2023-01-29T07:46:40;5.25;;;4.72;;
48733;SDS011;34530;52.084;5.146;2023-01-29T07:49:06;5.68;;;5.03;;
48733;SDS011;34530;52.084;5.146;2023-01-29T07:51:31;5.40;;;4.85;;
48733;SDS011;34530;52.084;5.146;2023-01-29T07:53:57;4.95;;;4.32;;
48733;SDS011;34530;52.084;5.146;2023-01-29T07:56:23;5.15;;;4.47;;
48733;SDS011;34530;52.084;5.146;2023-01-29T07:58:48;5.38;;;4.88;;
48733;SDS011;34530;52.084;5.146;2023-01-29T08:01:14;5.93;;;4.90;;
48733;SDS011;34530;52.084;5.146;2023-01-29T08:03:39;5.10;;;4.60;;
48733;SDS011;34530;52.084;5.146;2023-01-29T08:06:05;4.80;;;4.32;;
48733;SDS011;34530;52.084;5.146;2023-01-29T08:08:31;5.32;;;4.82;;
48733;SDS011;34530;52.084;5.146;2023-01-29T08:10:59;5.95;;;4.97;;
48733;SDS011;34530;52.084;5.146;2023-01-29T08:13:26;5.60;;;4.72;;
48733;SDS011;34530;52.084;5.146;2023-01-29T08:15:52;5.40;;;4.90;;
48733;SDS011;34530;52.084;5.146;2023-01-29T08:18:17;6.38;;;4.85;;
48733;SDS011;34530;52.084;5.146;2023-01-29T08:20:43;5.60;;;4.95;;
48733;SDS011;34530;52.084;5.146;2023-01-29T08:23:11;6.22;;;5.47;;
48733;SDS011;34530;52.084;5.146;2023-01-29T08:25:39;5.82;;;5.22;;
48733;SDS011;34530;52.084;5.146;2023-01-29T08:28:04;5.45;;;4.88;;
48733;SDS011;34530;52.084;5.146;2023-01-29T08:30:31;5.55;;;4.68;;
48733;SDS011;34530;52.084;5.146;2023-01-29T08:32:58;6.72;;;4.90;;
48733;SDS011;34530;52.084;5.146;2023-01-29T08:35:23;6.10;;;5.30;;
48733;SDS011;34530;52.084;5.146;2023-01-29T08:37:57;6.53;;;5.15;;
48733;SDS011;34530;52.084;5.146;2023-01-29T08:40:24;5.78;;;5.03;;
48733;SDS011;34530;52.084;5.146;2023-01-29T08:42:50;4.90;;;4.40;;
48733;SDS011;34530;52.084;5.146;2023-01-29T08:45:16;5.85;;;5.22;;
48733;SDS011;34530;52.084;5.146;2023-01-29T08:47:48;5.82;;;5.10;;
48733;SDS011;34530;52.084;5.146;2023-01-29T08:50:17;6.88;;;5.43;;
48733;SDS011;34530;52.084;5.146;2023-01-29T08:52:43;6.20;;;5.40;;
48733;SDS011;34530;52.084;5.146;2023-01-29T08:55:10;4.90;;;4.50;;
48733;SDS011;34530;52.084;5.146;2023-01-29T08:57:36;5.15;;;4.50;;
48733;SDS011;34530;52.084;5.146;2023-01-29T09:00:02;5.75;;;4.53;;
48733;SDS011;34530;52.084;5.146;2023-01-29T09:02:29;6.03;;;4.78;;
48733;SDS011;34530;52.084;5.146;2023-01-29T09:04:54;7.47;;;5.40;;
48733;SDS011;34530;52.084;5.146;2023-01-29T09:07:20;7.10;;;4.85;;
48733;SDS011;34530;52.084;5.146;2023-01-29T09:09:45;5.72;;;4.85;;
48733;SDS011;34530;52.084;5.146;2023-01-29T09:12:11;7.05;;;5.68;;
48733;SDS011;34530;52.084;5.146;2023-01-29T09:14:37;6.15;;;5.18;;
48733;SDS011;34530;52.084;5.146;2023-01-29T09:17:02;7.90;;;5.13;;
48733;SDS011;34530;52.084;5.146;2023-01-29T09:19:28;6.80;;;5.07;;
48733;SDS011;34530;52.084;5.146;2023-01-29T09:21:54;5.82;;;5.22;;
48733;SDS011;34530;52.084;5.146;2023-01-29T09:24:19;15.95;;;5.05;;
48733;SDS011;34530;52.084;5.146;2023-01-29T09:26:45;13.13;;;6.07;;
48733;SDS011;34530;52.084;5.146;2023-01-29T09:29:10;5.93;;;5.32;;
48733;SDS011;34530;52.084;5.146;2023-01-29T09:31:36;7.90;;;5.38;;
48733;SDS011;34530;52.084;5.146;2023-01-29T09:34:01;6.85;;;5.53;;
48733;SDS011;34530;52.084;5.146;2023-01-29T09:36:27;5.85;;;4.90;;
48733;SDS011;34530;52.084;5.146;2023-01-29T09:38:53;6.50;;;4.90;;
48733;SDS011;34530;52.084;5.146;2023-01-29T09:41:43;4.50;;;4.10;;
48733;SDS011;34530;52.084;5.146;2023-01-29T09:46:43;6.82;;;4.70;;
48733;SDS011;34530;52.084;5.146;2023-01-29T09:49:24;7.30;;;4.72;;
48733;SDS011;34530;52.084;5.146;2023-01-29T09:52:07;5.30;;;4.72;;
48733;SDS011;34530;52.084;5.146;2023-01-29T09:57:32;5.65;;;3.95;;
48733;SDS011;34530;52.084;5.146;2023-01-29T10:00:19;4.45;;;3.65;;
48733;SDS011;34530;52.084;5.146;2023-01-29T10:08:08;5.82;;;3.42;;
48733;SDS011;34530;52.084;5.146;2023-01-29T10:11:06;4.38;;;3.53;;
48733;SDS011;34530;52.084;5.146;2023-01-29T10:18:46;3.42;;;3.13;;
48733;SDS011;34530;52.084;5.146;2023-01-29T10:27:02;4.30;;;2.90;;
48733;SDS011;34530;52.084;5.146;2023-01-29T10:29:29;5.30;;;4.07;;
48733;SDS011;34530;52.084;5.146;2023-01-29T10:31:59;4.35;;;3.25;;
48733;SDS011;34530;52.084;5.146;2023-01-29T10:34:40;6.13;;;3.50;;
48733;SDS011;34530;52.084;5.146;2023-01-29T10:37:13;4.00;;;3.00;;
48733;SDS011;34530;52.084;5.146;2023-01-29T10:39:48;6.07;;;4.43;;
48733;SDS011;34530;52.084;5.146;2023-01-29T10:50:53;7.53;;;5.93;;
48733;SDS011;34530;52.084;5.146;2023-01-29T10:53:27;7.47;;;6.18;;
48733;SDS011;34530;52.084;5.146;2023-01-29T11:01:56;8.38;;;5.93;;
48733;SDS011;34530;52.084;5.146;2023-01-29T11:04:23;7.88;;;6.03;;
48733;SDS011;34530;52.084;5.146;2023-01-29T11:06:51;9.25;;;6.05;;
48733;SDS011;34530;52.084;5.146;2023-01-29T11:09:27;10.57;;;6.45;;
48733;SDS011;34530;52.084;5.146;2023-01-29T11:14:44;7.47;;;5.93;;
48733;SDS011;34530;52.084;5.146;2023-01-29T11:17:18;6.13;;;5.18;;
48733;SDS011;34530;52.084;5.146;2023-01-29T11:19:47;8.20;;;5.03;;
48733;SDS011;34530;52.084;5.146;2023-01-29T11:22:33;6.72;;;5.18;;
48733;SDS011;34530;52.084;5.146;2023-01-29T11:27:44;7.63;;;4.70;;
48733;SDS011;34530;52.084;5.146;2023-01-29T11:31:00;7.35;;;5.50;;
48733;SDS011;34530;52.084;5.146;2023-01-29T11:35:33;8.05;;;5.75;;
48733;SDS011;34530;52.084;5.146;2023-01-29T11:38:33;5.68;;;5.07;;
48733;SDS011;34530;52.084;5.146;2023-01-29T11:41:03;9.55;;;4.78;;
48733;SDS011;34530;52.084;5.146;2023-01-29T11:43:30;5.60;;;4.55;;
48733;SDS011;34530;52.084;5.146;2023-01-29T11:45:58;6.75;;;5.15;;
48733;SDS011;34530;52.084;5.146;2023-01-29T11:48:31;6.22;;;5.63;;
48733;SDS011;34530;52.084;5.146;2023-01-29T11:51:03;11.65;;;5.75;;
48733;SDS011;34530;52.084;5.146;2023-01-29T11:53:33;12.90;;;5.60;;
48733;SDS011;34530;52.084;5.146;2023-01-29T11:56:05;10.55;;;5.55;;
48733;SDS011;34530;52.084;5.146;2023-01-29T11:58:43;6.85;;;5.47;;
48733;SDS011;34530;52.084;5.146;2023-01-29T12:01:10;7.13;;;5.55;;
48733;SDS011;34530;52.084;5.146;2023-01-29T12:03:40;7.63;;;5.43;;
48733;SDS011;34530;52.084;5.146;2023-01-29T12:06:22;6.65;;;5.80;;
48733;SDS011;34530;52.084;5.146;2023-01-29T12:08:58;12.55;;;5.22;;
48733;SDS011;34530;52.084;5.146;2023-01-29T12:11:30;8.43;;;5.05;;
48733;SDS011;34530;52.084;5.146;2023-01-29T12:13:58;18.52;;;7.40;;
48733;SDS011;34530;52.084;5.146;2023-01-29T12:16:29;12.48;;;6.97;;
48733;SDS011;34530;52.084;5.146;2023-01-29T12:19:25;15.50;;;7.63;;
48733;SDS011;34530;52.084;5.146;2023-01-29T12:24:48;56.53;;;30.45;;
48733;SDS011;34530;52.084;5.146;2023-01-29T12:27:34;41.53;;;24.45;;
48733;SDS011;34530;52.084;5.146;2023-01-29T12:30:18;39.88;;;22.42;;
48733;SDS011;34530;52.084;5.146;2023-01-29T12:32:55;46.33;;;25.73;;
48733;SDS011;34530;52.084;5.146;2023-01-29T12:38:57;59.00;;;29.55;;
48733;SDS011;34530;52.084;5.146;2023-01-29T12:44:15;55.15;;;28.52;;
48733;SDS011;34530;52.084;5.146;2023-01-29T12:46:46;55.58;;;28.38;;
48733;SDS011;34530;52.084;5.146;2023-01-29T12:49:23;50.30;;;26.83;;
48733;SDS011;34530;52.084;5.146;2023-01-29T12:54:30;51.72;;;26.60;;
48733;SDS011;34530;52.084;5.146;2023-01-29T12:57:22;46.40;;;26.13;;
48733;SDS011;34530;52.084;5.146;2023-01-29T12:59:57;46.10;;;23.60;;
48733;SDS011;34530;52.084;5.146;2023-01-29T13:02:31;49.95;;;25.02;;
48733;SDS011;34530;52.084;5.146;2023-01-29T13:05:21;42.83;;;23.00;;
48733;SDS011;34530;52.084;5.146;2023-01-29T13:07:52;43.17;;;23.85;;
48733;SDS011;34530;52.084;5.146;2023-01-29T13:10:27;38.35;;;23.02;;
48733;SDS011;34530;52.084;5.146;2023-01-29T13:12:59;38.00;;;22.67;;
48733;SDS011;34530;52.084;5.146;2023-01-29T13:15:35;42.40;;;23.83;;
48733;SDS011;34530;52.084;5.146;2023-01-29T13:18:45;37.67;;;21.85;;
48733;SDS011;34530;52.084;5.146;2023-01-29T13:21:01;39.95;;;21.63;;
48733;SDS011;34530;52.084;5.146;2023-01-29T13:25:54;38.58;;;21.85;;
48733;SDS011;34530;52.084;5.146;2023-01-29T13:28:22;39.97;;;21.13;;
48733;SDS011;34530;52.084;5.146;2023-01-29T13:31:10;39.15;;;20.55;;
48733;SDS011;34530;52.084;5.146;2023-01-29T13:33:52;33.63;;;20.50;;
48733;SDS011;34530;52.084;5.146;2023-01-29T13:36:31;31.30;;;19.45;;
48733;SDS011;34530;52.084;5.146;2023-01-29T13:39:04;33.88;;;20.27;;
48733;SDS011;34530;52.084;5.146;2023-01-29T13:41:36;34.38;;;19.70;;
48733;SDS011;34530;52.084;5.146;2023-01-29T13:44:06;35.95;;;20.45;;
48733;SDS011;34530;52.084;5.146;2023-01-29T13:46:54;33.53;;;19.02;;
48733;SDS011;34530;52.084;5.146;2023-01-29T13:52:12;30.75;;;17.38;;
48733;SDS011;34530;52.084;5.146;2023-01-29T13:54:54;30.60;;;17.58;;
48733;SDS011;34530;52.084;5.146;2023-01-29T13:57:46;32.58;;;18.45;;
48733;SDS011;34530;52.084;5.146;2023-01-29T14:07:57;29.52;;;16.70;;
48733;SDS011;34530;52.084;5.146;2023-01-29T14:10:30;28.25;;;17.13;;
48733;SDS011;34530;52.084;5.146;2023-01-29T14:15:30;29.17;;;17.05;;
48733;SDS011;34530;52.084;5.146;2023-01-29T14:18:04;28.65;;;16.02;;
48733;SDS011;34530;52.084;5.146;2023-01-29T14:20:49;26.77;;;16.77;;
48733;SDS011;34530;52.084;5.146;2023-01-29T14:23:28;29.95;;;16.20;;
48733;SDS011;34530;52.084;5.146;2023-01-29T14:26:00;26.52;;;16.13;;
48733;SDS011;34530;52.084;5.146;2023-01-29T14:28:29;22.67;;;15.10;;
48733;SDS011;34530;52.084;5.146;2023-01-29T14:30:57;25.88;;;15.50;;
48733;SDS011;34530;52.084;5.146;2023-01-29T14:33:36;23.40;;;14.65;;
48733;SDS011;34530;52.084;5.146;2023-01-29T14:36:05;22.30;;;14.40;;
48733;SDS011;34530;52.084;5.146;2023-01-29T14:38:37;22.90;;;15.65;;
48733;SDS011;34530;52.084;5.146;2023-01-29T14:41:31;21.00;;;14.10;;
48733;SDS011;34530;52.084;5.146;2023-01-29T14:47:01;21.05;;;14.27;;
48733;SDS011;34530;52.084;5.146;2023-01-29T14:49:46;24.25;;;14.13;;
48733;SDS011;34530;52.084;5.146;2023-01-29T14:52:12;23.88;;;14.00;;
48733;SDS011;34530;52.084;5.146;2023-01-29T14:54:39;21.05;;;13.60;;
48733;SDS011;34530;52.084;5.146;2023-01-29T14:57:08;20.77;;;13.23;;
48733;SDS011;34530;52.084;5.146;2023-01-29T14:59:55;18.42;;;12.88;;
48733;SDS011;34530;52.084;5.146;2023-01-29T15:02:27;23.02;;;13.48;;
48733;SDS011;34530;52.084;5.146;2023-01-29T15:05:01;20.67;;;12.60;;
48733;SDS011;34530;52.084;5.146;2023-01-29T15:07:43;20.27;;;12.85;;
48733;SDS011;34530;52.084;5.146;2023-01-29T15:12:48;20.60;;;13.15;;
48733;SDS011;34530;52.084;5.146;2023-01-29T15:15:35;24.88;;;13.02;;
48733;SDS011;34530;52.084;5.146;2023-01-29T15:18:07;20.27;;;12.95;;
48733;SDS011;34530;52.084;5.146;2023-01-29T15:20:39;19.10;;;12.70;;
48733;SDS011;34530;52.084;5.146;2023-01-29T15:23:25;18.90;;;12.20;;
48733;SDS011;34530;52.084;5.146;2023-01-29T15:25:56;17.52;;;11.48;;
48733;SDS011;34530;52.084;5.146;2023-01-29T15:28:25;20.73;;;12.18;;
48733;SDS011;34530;52.084;5.146;2023-01-29T15:30:55;18.80;;;12.23;;
48733;SDS011;34530;52.084;5.146;2023-01-29T15:33:23;16.58;;;11.63;;
48733;SDS011;34530;52.084;5.146;2023-01-29T15:35:53;18.83;;;11.70;;
48733;SDS011;34530;52.084;5.146;2023-01-29T15:38:24;17.55;;;11.57;;
48733;SDS011;34530;52.084;5.146;2023-01-29T15:43:35;16.73;;;11.20;;
48733;SDS011;34530;52.084;5.146;2023-01-29T15:46:09;17.10;;;10.50;;
48733;SDS011;34530;52.084;5.146;2023-01-29T15:48:43;14.50;;;11.25;;
48733;SDS011;34530;52.084;5.146;2023-01-29T15:51:12;18.25;;;11.00;;
48733;SDS011;34530;52.084;5.146;2023-01-29T15:53:41;19.30;;;11.45;;
48733;SDS011;34530;52.084;5.146;2023-01-29T15:56:14;16.75;;;10.45;;
48733;SDS011;34530;52.084;5.146;2023-01-29T15:58:45;14.27;;;10.43;;
48733;SDS011;34530;52.084;5.146;2023-01-29T16:01:13;17.02;;;11.50;;
48733;SDS011;34530;52.084;5.146;2023-01-29T16:03:39;15.45;;;10.77;;
48733;SDS011;34530;52.084;5.146;2023-01-29T16:06:06;15.65;;;10.63;;
48733;SDS011;34530;52.084;5.146;2023-01-29T16:08:32;15.05;;;10.20;;
48733;SDS011;34530;52.084;5.146;2023-01-29T16:11:02;13.82;;;10.38;;
48733;SDS011;34530;52.084;5.146;2023-01-29T16:13:30;14.60;;;10.25;;
48733;SDS011;34530;52.084;5.146;2023-01-29T16:16:03;13.73;;;10.30;;
48733;SDS011;34530;52.084;5.146;2023-01-29T16:18:38;15.38;;;10.23;;
48733;SDS011;34530;52.084;5.146;2023-01-29T16:21:15;15.65;;;10.50;;
48733;SDS011;34530;52.084;5.146;2023-01-29T16:23:49;13.50;;;9.85;;
48733;SDS011;34530;52.084;5.146;2023-01-29T16:26:18;16.45;;;9.75;;
48733;SDS011;34530;52.084;5.146;2023-01-29T16:28:47;14.68;;;9.60;;
48733;SDS011;34530;52.084;5.146;2023-01-29T16:31:19;14.40;;;9.70;;
48733;SDS011;34530;52.084;5.146;2023-01-29T16:33:52;11.90;;;8.70;;
48733;SDS011;34530;52.084;5.146;2023-01-29T16:36:25;14.00;;;9.95;;
48733;SDS011;34530;52.084;5.146;2023-01-29T16:38:55;14.10;;;9.23;;
48733;SDS011;34530;52.084;5.146;2023-01-29T16:43:53;13.68;;;9.32;;
48733;SDS011;34530;52.084;5.146;2023-01-29T16:46:26;14.68;;;10.18;;
48733;SDS011;34530;52.084;5.146;2023-01-29T16:49:14;13.02;;;9.35;;
48733;SDS011;34530;52.084;5.146;2023-01-29T16:51:50;12.70;;;8.88;;
48733;SDS011;34530;52.084;5.146;2023-01-29T16:54:19;12.57;;;9.10;;
48733;SDS011;34530;52.084;5.146;2023-01-29T16:56:49;11.05;;;8.63;;
48733;SDS011;34530;52.084;5.146;2023-01-29T16:59:23;11.98;;;8.88;;
48733;SDS011;34530;52.084;5.146;2023-01-29T17:01:59;11.73;;;8.50;;
48733;SDS011;34530;52.084;5.146;2023-01-29T17:04:25;13.05;;;9.05;;
48733;SDS011;34530;52.084;5.146;2023-01-29T17:06:56;11.32;;;8.32;;
48733;SDS011;34530;52.084;5.146;2023-01-29T17:11:59;13.68;;;9.02;;
48733;SDS011;34530;52.084;5.146;2023-01-29T17:14:29;12.23;;;9.63;;
48733;SDS011;34530;52.084;5.146;2023-01-29T17:17:03;10.50;;;8.38;;
48733;SDS011;34530;52.084;5.146;2023-01-29T17:19:31;14.02;;;8.65;;
48733;SDS011;34530;52.084;5.146;2023-01-29T17:21:57;13.13;;;8.50;;
48733;SDS011;34530;52.084;5.146;2023-01-29T17:24:23;13.93;;;9.57;;
48733;SDS011;34530;52.084;5.146;2023-01-29T17:26:49;11.75;;;8.73;;
48733;SDS011;34530;52.084;5.146;2023-01-29T17:29:19;11.40;;;8.45;;
48733;SDS011;34530;52.084;5.146;2023-01-29T17:31:50;16.00;;;9.10;;